createdAt,value
2019-03-22T00:00:25.504Z,6.70
2019-03-22T00:02:54.229Z,6.70
2019-03-22T00:05:23.048Z,6.70
2019-03-22T00:07:51.965Z,6.80
2019-03-22T00:10:20.924Z,6.80
2019-03-22T00:12:49.780Z,6.80
2019-03-22T00:15:18.603Z,6.90
2019-03-22T00:17:47.513Z,6.90
2019-03-22T00:20:16.246Z,7.00
2019-03-22T00:22:45.627Z,7.00
2019-03-22T00:25:15.775Z,7.00
2019-03-22T00:27:44.539Z,6.90
2019-03-22T00:30:14.105Z,6.80
2019-03-22T00:32:43.004Z,6.90
2019-03-22T00:35:12.143Z,6.90
2019-03-22T00:37:41.465Z,6.80
2019-03-22T00:40:11.457Z,6.70
2019-03-22T00:42:40.159Z,6.70
2019-03-22T00:45:10.690Z,6.70
2019-03-22T00:47:39.541Z,6.70
2019-03-22T00:50:11.290Z,6.70
2019-03-22T00:52:40.095Z,6.60
2019-03-22T00:55:10.330Z,6.60
2019-03-22T00:57:39.683Z,6.70
2019-03-22T01:00:11.086Z,6.70
2019-03-22T01:02:39.891Z,6.80
2019-03-22T01:05:09.294Z,6.80
2019-03-22T01:07:38.235Z,6.80
2019-03-22T01:10:09.539Z,6.70
2019-03-22T01:12:38.432Z,6.60
2019-03-22T01:15:09.491Z,6.50
2019-03-22T01:17:38.346Z,6.30
2019-03-22T01:20:08.972Z,6.10
2019-03-22T01:22:38.087Z,6.10
2019-03-22T01:25:07.747Z,6.10
2019-03-22T01:27:40.749Z,6.20
2019-03-22T01:30:10.287Z,6.30
2019-03-22T01:32:38.988Z,6.30
2019-03-22T01:35:08.972Z,6.30
2019-03-22T01:37:38.069Z,6.40
2019-03-22T01:40:09.433Z,6.30
2019-03-22T01:42:38.266Z,6.20
2019-03-22T01:45:10.022Z,6.10
2019-03-22T01:47:39.143Z,6.10
2019-03-22T01:50:11.248Z,6.10
2019-03-22T01:52:40.384Z,6.00
2019-03-22T01:55:10.423Z,5.90
2019-03-22T01:57:39.533Z,6.00
2019-03-22T02:00:11.467Z,6.00
2019-03-22T02:02:40.198Z,6.00
2019-03-22T02:05:09.485Z,6.10
2019-03-22T02:07:38.233Z,6.20
2019-03-22T02:10:09.608Z,6.10
2019-03-22T02:12:38.504Z,5.90
2019-03-22T02:15:09.837Z,5.80
2019-03-22T02:17:38.629Z,5.60
2019-03-22T02:20:08.994Z,5.50
2019-03-22T02:22:38.355Z,5.60
2019-03-22T02:25:07.634Z,5.60
2019-03-22T02:27:36.901Z,5.60
2019-03-22T02:30:09.172Z,5.50
2019-03-22T02:32:37.948Z,5.40
2019-03-22T02:35:08.224Z,5.30
2019-03-22T02:37:37.337Z,5.30
2019-03-22T02:40:08.799Z,5.20
2019-03-22T02:42:39.084Z,5.20
2019-03-22T02:45:10.765Z,5.40
2019-03-22T02:47:39.556Z,5.40
2019-03-22T02:50:17.785Z,5.30
2019-03-22T02:52:41.651Z,5.30
2019-03-22T02:55:11.779Z,5.30
2019-03-22T02:57:40.850Z,5.20
2019-03-22T03:00:12.482Z,5.10
2019-03-22T03:02:41.207Z,5.10
2019-03-22T03:05:10.579Z,5.20
2019-03-22T03:07:40.298Z,5.30
2019-03-22T03:10:12.440Z,5.40
2019-03-22T03:12:41.343Z,5.40
2019-03-22T03:15:13.216Z,5.40
2019-03-22T03:17:42.068Z,5.40
2019-03-22T03:20:13.731Z,5.40
2019-03-22T03:22:42.476Z,5.60
2019-03-22T03:25:11.670Z,5.70
2019-03-22T03:27:40.432Z,5.70
2019-03-22T03:30:12.185Z,5.70
2019-03-22T03:32:41.018Z,5.70
2019-03-22T03:35:10.352Z,5.80
2019-03-22T03:37:46.839Z,5.90
2019-03-22T03:40:18.656Z,6.00
2019-03-22T03:42:47.769Z,6.10
2019-03-22T03:45:19.441Z,6.10
2019-03-22T03:47:48.331Z,5.90
2019-03-22T03:50:17.067Z,5.90
2019-03-22T03:52:45.904Z,5.90
2019-03-22T03:55:17.349Z,5.80
2019-03-22T03:57:46.140Z,5.70
2019-03-22T04:00:15.054Z,5.50
2019-03-22T04:02:43.833Z,5.50
2019-03-22T04:05:14.751Z,5.50
2019-03-22T04:07:44.069Z,5.60
2019-03-22T04:10:12.930Z,5.70
2019-03-22T04:12:41.687Z,5.70
2019-03-22T04:15:10.832Z,5.60
2019-03-22T04:17:39.631Z,5.60
2019-03-22T04:20:08.962Z,5.60
2019-03-22T04:22:37.805Z,5.60
2019-03-22T04:25:08.071Z,5.60
2019-03-22T04:27:36.871Z,5.60
2019-03-22T04:30:07.603Z,5.70
2019-03-22T04:32:36.485Z,5.70
2019-03-22T04:35:07.231Z,5.70
2019-03-22T04:37:35.965Z,5.70
2019-03-22T04:40:07.514Z,5.70
2019-03-22T04:42:36.286Z,5.70
2019-03-22T04:45:06.573Z,5.60
2019-03-22T04:47:36.222Z,5.60
2019-03-22T04:50:06.406Z,5.60
2019-03-22T04:52:35.557Z,5.60
2019-03-22T04:55:05.627Z,5.50
2019-03-22T04:57:35.554Z,5.50
2019-03-22T05:00:06.653Z,5.50
2019-03-22T05:02:35.716Z,5.40
2019-03-22T05:05:06.189Z,5.30
2019-03-22T05:07:35.559Z,5.20
2019-03-22T05:10:06.687Z,5.20
2019-03-22T05:21:31.482Z,5.10
2019-03-22T05:27:30.092Z,5.10
2019-03-22T05:47:03.499Z,5.20
2019-03-22T05:50:05.162Z,5.20
2019-03-22T05:55:36.762Z,5.30
2019-03-22T05:58:05.693Z,5.40
2019-03-22T06:00:34.512Z,5.50
2019-03-22T06:03:03.241Z,5.60
2019-03-22T06:05:32.028Z,6.00
2019-03-22T06:08:00.799Z,6.30
2019-03-22T06:10:29.448Z,6.50
2019-03-22T06:12:58.125Z,6.80
2019-03-22T06:15:26.985Z,7.20
2019-03-22T06:17:55.639Z,7.40
2019-03-22T06:20:24.660Z,7.30
2019-03-22T06:22:53.451Z,7.10
2019-03-22T06:25:22.196Z,7.10
2019-03-22T06:27:50.956Z,7.20
2019-03-22T06:30:19.739Z,7.60
2019-03-22T06:32:48.409Z,8.50
2019-03-22T06:35:17.116Z,9.00
2019-03-22T06:37:45.805Z,8.70
2019-03-22T06:40:14.547Z,8.40
2019-03-22T06:42:44.696Z,8.20
2019-03-22T06:45:14.132Z,8.10
2019-03-22T06:47:42.967Z,8.10
2019-03-22T06:50:11.802Z,8.10
2019-03-22T06:52:40.462Z,7.90
2019-03-22T06:55:09.448Z,7.90
2019-03-22T06:57:38.038Z,8.00
2019-03-22T07:00:10.061Z,8.30
2019-03-22T07:02:38.806Z,8.60
2019-03-22T07:05:08.076Z,8.70
2019-03-22T07:07:36.785Z,8.80
2019-03-22T07:10:07.272Z,8.90
2019-03-22T07:12:35.896Z,8.90
2019-03-22T07:15:06.679Z,9.00
2019-03-22T07:17:35.400Z,9.30
2019-03-22T07:20:05.318Z,9.70
2019-03-22T07:22:34.448Z,10.40
2019-03-22T07:25:03.844Z,11.10
2019-03-22T07:27:32.527Z,11.40
2019-03-22T07:30:01.320Z,11.80
2019-03-22T07:32:30.104Z,12.40
2019-03-22T07:34:58.871Z,12.60
2019-03-22T07:37:27.553Z,12.30
2019-03-22T07:39:56.319Z,12.20
2019-03-22T07:42:25.051Z,11.90
2019-03-22T07:44:53.834Z,11.80
2019-03-22T07:47:22.712Z,11.70
2019-03-22T07:49:51.455Z,12.00
2019-03-22T07:52:23.380Z,12.40
2019-03-22T07:54:52.059Z,12.80
2019-03-22T07:57:20.848Z,13.20
2019-03-22T07:59:49.765Z,12.90
2019-03-22T08:02:18.419Z,13.20
2019-03-22T08:04:47.073Z,13.30
2019-03-22T08:07:15.873Z,13.60
2019-03-22T08:09:44.624Z,13.60
2019-03-22T08:12:13.481Z,13.50
2019-03-22T08:14:42.258Z,13.40
2019-03-22T08:17:11.152Z,13.00
2019-03-22T08:19:40.018Z,12.80
2019-03-22T08:22:08.849Z,12.80
2019-03-22T08:24:37.696Z,13.00
2019-03-22T08:27:06.430Z,13.30
2019-03-22T08:29:35.242Z,13.90
2019-03-22T08:32:04.018Z,14.70
2019-03-22T08:34:32.656Z,15.50
2019-03-22T08:37:01.542Z,16.20
2019-03-22T08:39:30.148Z,17.00
2019-03-22T08:41:59.030Z,17.40
2019-03-22T08:44:27.875Z,18.20
2019-03-22T08:46:56.503Z,18.70
2019-03-22T08:49:25.334Z,18.60
2019-03-22T08:51:54.239Z,19.10
2019-03-22T08:54:22.942Z,19.60
2019-03-22T08:56:51.790Z,20.10
2019-03-22T08:59:20.517Z,20.10
2019-03-22T09:01:49.326Z,19.90
2019-03-22T09:04:18.191Z,20.10
2019-03-22T09:06:47.000Z,20.60
2019-03-22T09:09:15.899Z,21.30
2019-03-22T09:11:44.706Z,21.30
2019-03-22T09:14:13.389Z,21.80
2019-03-22T09:16:42.115Z,21.60
2019-03-22T09:19:10.991Z,21.40
2019-03-22T09:21:39.822Z,21.70
2019-03-22T09:24:08.532Z,22.40
2019-03-22T09:26:47.047Z,22.80
2019-03-22T09:29:07.961Z,23.10
2019-03-22T09:31:36.719Z,23.70
2019-03-22T09:34:05.445Z,23.50
2019-03-22T09:36:34.172Z,22.60
2019-03-22T09:39:03.963Z,22.10
2019-03-22T09:41:32.963Z,21.90
2019-03-22T09:44:01.895Z,21.90
2019-03-22T09:46:30.717Z,21.60
2019-03-22T09:48:59.398Z,21.80
2019-03-22T09:51:28.255Z,21.80
2019-03-22T09:53:57.001Z,21.90
2019-03-22T09:56:25.716Z,21.80
2019-03-22T09:58:54.366Z,21.50
2019-03-22T10:01:24.265Z,20.90
2019-03-22T10:03:53.592Z,20.40
2019-03-22T10:06:22.329Z,20.20
2019-03-22T10:08:51.174Z,20.30
2019-03-22T10:11:20.002Z,20.80
2019-03-22T10:13:48.830Z,20.40
2019-03-22T10:16:17.604Z,20.60
2019-03-22T10:18:46.339Z,20.40
2019-03-22T10:21:22.517Z,20.40
2019-03-22T10:23:45.523Z,20.50
2019-03-22T10:26:14.263Z,20.70
2019-03-22T10:28:42.943Z,21.20
2019-03-22T10:31:11.714Z,21.80
2019-03-22T10:33:40.427Z,22.30
2019-03-22T10:36:09.260Z,22.40
2019-03-22T10:38:38.085Z,22.00
2019-03-22T10:41:06.843Z,21.60
2019-03-22T10:43:35.599Z,21.10
2019-03-22T10:46:04.359Z,21.40
2019-03-22T10:48:33.089Z,21.20
2019-03-22T10:51:01.879Z,21.00
2019-03-22T10:53:30.631Z,21.00
2019-03-22T10:55:59.640Z,21.30
2019-03-22T10:58:28.273Z,21.60
2019-03-22T11:00:57.210Z,22.00
2019-03-22T11:03:25.949Z,21.60
2019-03-22T11:05:54.756Z,21.70
2019-03-22T11:08:23.335Z,22.20
2019-03-22T11:10:52.050Z,22.70
2019-03-22T11:13:20.743Z,22.60
2019-03-22T11:15:49.436Z,22.60
2019-03-22T11:18:18.384Z,22.80
2019-03-22T11:20:47.196Z,22.60
2019-03-22T11:23:15.930Z,22.80
2019-03-22T11:25:45.032Z,22.80
2019-03-22T11:28:13.843Z,22.60
2019-03-22T11:30:42.611Z,22.30
2019-03-22T11:33:11.316Z,22.60
2019-03-22T11:35:40.157Z,22.80
2019-03-22T11:38:08.833Z,23.00
2019-03-22T11:40:37.625Z,23.00
2019-03-22T11:43:08.963Z,23.00
2019-03-22T11:45:36.977Z,23.30
2019-03-22T11:48:05.678Z,23.40
2019-03-22T11:50:34.869Z,23.00
2019-03-22T11:53:03.770Z,23.10
2019-03-22T11:55:32.538Z,23.60
2019-03-22T11:58:01.328Z,23.40
2019-03-22T12:00:30.093Z,23.00
2019-03-22T12:02:58.962Z,22.80
2019-03-22T12:05:27.830Z,23.20
2019-03-22T12:07:56.596Z,23.50
2019-03-22T12:10:25.603Z,23.10
2019-03-22T12:12:58.585Z,22.70
2019-03-22T12:15:27.422Z,23.00
2019-03-22T12:17:56.262Z,22.70
2019-03-22T12:20:25.131Z,22.70
2019-03-22T12:22:53.889Z,23.00
2019-03-22T12:25:24.305Z,23.20
2019-03-22T12:27:53.138Z,23.50
2019-03-22T12:30:22.100Z,24.00
2019-03-22T12:32:50.895Z,23.20
2019-03-22T12:35:19.704Z,23.00
2019-03-22T12:37:48.565Z,23.20
2019-03-22T12:40:19.309Z,23.20
2019-03-22T12:42:48.294Z,22.70
2019-03-22T12:45:19.797Z,22.10
2019-03-22T12:47:48.651Z,22.00
2019-03-22T12:50:18.130Z,21.90
2019-03-22T12:52:46.884Z,22.20
2019-03-22T12:55:17.079Z,21.70
2019-03-22T12:57:45.824Z,20.80
2019-03-22T13:00:17.442Z,20.60
2019-03-22T13:02:46.419Z,20.60
2019-03-22T13:05:15.723Z,21.20
2019-03-22T13:07:44.465Z,22.50
2019-03-22T13:10:16.684Z,22.80
2019-03-22T13:12:45.496Z,24.10
2019-03-22T13:15:14.439Z,24.80
2019-03-22T13:17:43.152Z,24.60
2019-03-22T13:20:13.821Z,24.50
2019-03-22T13:22:42.569Z,24.70
2019-03-22T13:25:13.346Z,25.20
2019-03-22T13:27:42.274Z,25.80
2019-03-22T13:30:13.763Z,25.20
2019-03-22T13:32:51.839Z,24.50
2019-03-22T13:35:12.907Z,25.90
2019-03-22T13:37:41.583Z,26.20
2019-03-22T13:40:11.496Z,25.30
2019-03-22T13:42:40.345Z,25.00
2019-03-22T13:45:09.251Z,25.90
2019-03-22T13:47:38.008Z,26.00
2019-03-22T13:50:08.427Z,24.80
2019-03-22T13:52:37.158Z,25.60
2019-03-22T13:55:07.706Z,26.70
2019-03-22T13:57:37.029Z,27.20
2019-03-22T14:00:08.174Z,26.90
2019-03-22T14:02:36.902Z,25.30
2019-03-22T14:05:08.451Z,24.20
2019-03-22T14:07:37.226Z,25.00
2019-03-22T14:10:08.689Z,26.20
2019-03-22T14:12:37.535Z,27.10
2019-03-22T14:15:07.875Z,27.70
2019-03-22T14:17:36.663Z,26.50
2019-03-22T14:20:11.092Z,24.60
2019-03-22T14:22:37.267Z,23.20
2019-03-22T14:25:06.855Z,23.60
2019-03-22T14:27:35.671Z,24.70
2019-03-22T14:30:07.684Z,25.00
2019-03-22T14:32:36.786Z,24.20
2019-03-22T14:35:07.075Z,23.60
2019-03-22T14:37:35.885Z,23.30
2019-03-22T14:40:06.413Z,22.40
2019-03-22T14:42:35.206Z,21.70
2019-03-22T14:45:06.626Z,21.50
2019-03-22T14:47:35.394Z,21.20
2019-03-22T14:50:24.679Z,20.80
2019-03-22T14:52:53.595Z,20.40
2019-03-22T14:55:22.595Z,20.30
2019-03-22T14:57:52.458Z,20.30
2019-03-22T15:00:21.289Z,20.30
2019-03-22T15:02:51.771Z,20.30
2019-03-22T15:05:20.611Z,20.30
2019-03-22T15:07:49.373Z,20.10
2019-03-22T15:10:18.202Z,20.10
2019-03-22T15:12:47.176Z,20.10
2019-03-22T15:15:17.615Z,20.10
2019-03-22T15:17:47.988Z,20.00
2019-03-22T15:20:18.463Z,19.90
2019-03-22T15:22:48.819Z,19.90
2019-03-22T15:25:19.123Z,19.90
2019-03-22T15:27:47.905Z,19.90
2019-03-22T15:30:18.211Z,19.90
2019-03-22T15:32:48.101Z,19.90
2019-03-22T15:35:18.518Z,19.90
2019-03-22T15:37:49.006Z,19.80
2019-03-22T15:40:17.749Z,19.80
2019-03-22T15:42:46.476Z,19.80
2019-03-22T15:47:44.248Z,19.70
2019-03-22T15:50:14.985Z,19.70
2019-03-22T15:52:43.809Z,19.70
2019-03-22T15:55:12.916Z,19.70
2019-03-22T15:57:41.783Z,19.70
2019-03-22T16:00:13.492Z,19.70
2019-03-22T16:02:42.345Z,19.60
2019-03-22T16:05:11.451Z,19.60
2019-03-22T16:07:40.794Z,19.60
2019-03-22T16:10:11.378Z,19.60
2019-03-22T16:12:41.026Z,19.50
2019-03-22T16:15:16.044Z,19.50
2019-03-22T16:17:46.247Z,19.50
2019-03-22T16:20:16.257Z,19.50
2019-03-22T16:22:45.202Z,19.50
2019-03-22T16:25:14.483Z,19.40
2019-03-22T16:27:43.597Z,19.40
2019-03-22T16:30:15.243Z,19.40
2019-03-22T16:32:44.278Z,19.40
2019-03-22T16:35:13.315Z,19.40
2019-03-22T16:37:42.166Z,19.30
2019-03-22T16:40:12.109Z,19.30
2019-03-22T16:42:40.979Z,19.30
2019-03-22T16:45:11.391Z,19.20
2019-03-22T16:47:40.141Z,19.20
2019-03-22T16:50:11.699Z,19.10
2019-03-22T16:52:40.456Z,19.10
2019-03-22T16:55:11.672Z,19.00
2019-03-22T16:57:40.459Z,19.00
2019-03-22T17:00:10.808Z,18.90
2019-03-22T17:02:39.674Z,18.90
2019-03-22T17:05:08.544Z,18.80
2019-03-22T17:07:37.208Z,18.80
2019-03-22T17:10:07.051Z,18.80
2019-03-22T17:12:35.854Z,18.80
2019-03-22T17:15:06.427Z,18.80
2019-03-22T17:17:35.242Z,18.60
2019-03-22T17:20:06.247Z,18.50
2019-03-22T17:22:35.079Z,18.50
2019-03-22T17:25:05.068Z,18.50
2019-03-22T17:27:33.892Z,18.50
2019-03-22T17:30:03.042Z,18.30
2019-03-22T17:32:31.956Z,18.30
2019-03-22T17:35:00.871Z,18.20
2019-03-22T17:37:29.578Z,18.10
2019-03-22T17:39:58.455Z,17.90
2019-03-22T17:42:27.214Z,17.80
2019-03-22T17:44:56.213Z,17.70
2019-03-22T17:47:26.104Z,17.60
2019-03-22T17:49:55.643Z,17.60
2019-03-22T17:52:24.922Z,17.60
2019-03-22T17:54:53.701Z,17.50
2019-03-22T17:57:22.528Z,17.50
2019-03-22T17:59:51.289Z,17.40
2019-03-22T18:02:20.060Z,17.20
2019-03-22T18:04:48.955Z,17.00
2019-03-22T18:07:18.317Z,17.00
2019-03-22T18:09:47.158Z,16.90
2019-03-22T18:12:15.961Z,16.90
2019-03-22T18:14:44.783Z,16.90
2019-03-22T18:17:13.810Z,16.80
2019-03-22T18:19:42.616Z,16.70
2019-03-22T18:22:11.365Z,16.60
2019-03-22T18:24:40.274Z,16.60
2019-03-22T18:27:09.369Z,16.50
2019-03-22T18:29:38.157Z,16.20
2019-03-22T18:32:07.051Z,16.10
2019-03-22T18:34:37.525Z,15.90
2019-03-22T18:37:06.621Z,15.70
2019-03-22T18:39:35.457Z,15.70
2019-03-22T18:42:04.594Z,15.70
2019-03-22T18:44:33.565Z,15.60
2019-03-22T18:47:02.529Z,15.40
2019-03-22T18:49:31.482Z,15.20
2019-03-22T18:52:00.314Z,15.00
2019-03-22T18:54:29.219Z,15.00
2019-03-22T18:56:58.111Z,14.90
2019-03-22T18:59:26.942Z,14.90
2019-03-22T19:01:55.923Z,14.80
2019-03-22T19:04:24.785Z,14.60
2019-03-22T19:06:53.555Z,14.50
2019-03-22T19:09:22.492Z,14.40
2019-03-22T19:11:51.279Z,14.40
2019-03-22T19:14:20.051Z,14.50
2019-03-22T19:16:48.844Z,14.70
2019-03-22T19:19:17.517Z,14.80
2019-03-22T19:21:46.334Z,14.90
2019-03-22T19:24:15.186Z,14.80
2019-03-22T19:26:44.314Z,14.80
2019-03-22T19:29:13.163Z,14.60
2019-03-22T19:31:41.992Z,14.40
2019-03-22T19:34:10.906Z,14.30
2019-03-22T19:36:39.722Z,14.20
2019-03-22T19:39:08.557Z,14.10
2019-03-22T19:41:37.392Z,14.00
2019-03-22T19:44:06.310Z,14.00
2019-03-22T19:46:35.344Z,13.80
2019-03-22T19:49:04.079Z,13.80
2019-03-22T19:51:32.908Z,13.70
2019-03-22T19:54:01.696Z,13.60
2019-03-22T19:56:30.548Z,13.60
2019-03-22T19:58:59.231Z,13.60
2019-03-22T20:01:27.961Z,13.50
2019-03-22T20:03:56.713Z,13.50
2019-03-22T20:06:25.456Z,13.40
2019-03-22T20:08:54.215Z,13.40
2019-03-22T20:11:23.000Z,13.20
2019-03-22T20:13:52.323Z,13.10
2019-03-22T20:16:21.575Z,12.90
2019-03-22T20:18:50.698Z,12.80
2019-03-22T20:21:19.432Z,12.60
2019-03-22T20:23:53.557Z,12.50
2019-03-22T20:26:18.855Z,12.40
2019-03-22T20:28:47.718Z,12.30
2019-03-22T20:31:16.650Z,12.30
2019-03-22T20:33:45.513Z,12.40
2019-03-22T20:36:14.333Z,12.40
2019-03-22T20:38:43.083Z,12.50
2019-03-22T20:41:11.988Z,12.40
2019-03-22T20:43:40.759Z,12.40
2019-03-22T20:46:09.565Z,12.50
2019-03-22T20:48:38.411Z,12.50
2019-03-22T20:51:07.294Z,12.50
2019-03-22T20:53:37.128Z,12.50
2019-03-22T20:56:05.862Z,12.50
2019-03-22T20:58:34.686Z,12.30
2019-03-22T21:01:03.523Z,12.30
2019-03-22T21:03:32.190Z,12.30
2019-03-22T21:06:01.107Z,12.30
2019-03-22T21:08:29.989Z,12.30
2019-03-22T21:10:58.812Z,12.40
2019-03-22T21:13:27.598Z,12.20
2019-03-22T21:15:56.405Z,12.20
2019-03-22T21:18:25.441Z,12.20
2019-03-22T21:20:54.279Z,12.20
2019-03-22T21:23:22.938Z,12.20
2019-03-22T21:25:53.427Z,12.20
2019-03-22T21:28:22.345Z,12.10
2019-03-22T21:30:51.145Z,12.10
2019-03-22T21:33:19.811Z,12.00
2019-03-22T21:35:48.686Z,11.90
2019-03-22T21:38:17.487Z,11.80
2019-03-22T21:40:46.351Z,11.70
2019-03-22T21:43:15.268Z,11.50
2019-03-22T21:45:45.345Z,11.20
2019-03-22T21:48:14.874Z,11.00
2019-03-22T21:50:43.861Z,10.80
2019-03-22T21:53:12.777Z,10.60
2019-03-22T21:55:41.529Z,10.40
2019-03-22T21:58:10.426Z,10.30
2019-03-22T22:00:40.635Z,10.20
2019-03-22T22:03:10.087Z,10.00
2019-03-22T22:05:47.434Z,9.90
2019-03-22T22:08:09.467Z,9.80
2019-03-22T22:10:38.342Z,9.60
2019-03-22T22:13:07.176Z,9.50
2019-03-22T22:15:36.443Z,9.40
2019-03-22T22:18:05.255Z,9.30
2019-03-22T22:20:34.237Z,9.40
2019-03-22T22:23:03.357Z,9.40
2019-03-22T22:25:32.377Z,9.30
2019-03-22T22:28:02.124Z,9.30
2019-03-22T22:30:32.785Z,9.10
2019-03-22T22:33:01.913Z,9.30
2019-03-22T22:35:31.747Z,9.50
2019-03-22T22:38:00.562Z,9.70
2019-03-22T22:40:29.402Z,9.80
2019-03-22T22:42:58.140Z,9.70
2019-03-22T22:45:26.871Z,9.80
2019-03-22T22:47:55.640Z,9.70
2019-03-22T22:50:24.491Z,9.60
2019-03-22T22:52:53.218Z,9.60
2019-03-22T22:55:21.942Z,9.50
2019-03-22T22:57:50.626Z,9.40
2019-03-22T23:00:19.430Z,9.40
2019-03-22T23:02:48.175Z,9.40
2019-03-22T23:05:17.007Z,9.50
2019-03-22T23:07:45.830Z,9.50
2019-03-22T23:10:14.948Z,9.40
2019-03-22T23:12:44.256Z,9.30
2019-03-22T23:15:13.205Z,9.30
2019-03-22T23:17:41.983Z,9.20
2019-03-22T23:20:11.427Z,9.00
2019-03-22T23:22:40.248Z,8.90
2019-03-22T23:25:09.196Z,8.80
2019-03-22T23:27:38.032Z,8.90
2019-03-22T23:30:09.860Z,8.90
2019-03-22T23:32:38.626Z,8.70
2019-03-22T23:35:08.399Z,8.70
2019-03-22T23:37:37.168Z,8.50
2019-03-22T23:40:06.646Z,8.40
2019-03-22T23:42:35.514Z,8.20
2019-03-22T23:45:07.191Z,8.00
2019-03-22T23:47:35.952Z,8.00
2019-03-22T23:50:06.932Z,7.90
2019-03-22T23:52:35.671Z,8.00
2019-03-22T23:55:06.108Z,8.00
2019-03-22T23:57:34.916Z,7.90
